createdAt,value
2018-07-13T00:01:38.512Z,22.84
2018-07-13T00:04:09.358Z,22.86
2018-07-13T00:06:39.948Z,22.84
2018-07-13T00:09:12.432Z,22.81
2018-07-13T00:11:43.187Z,22.64
2018-07-13T00:14:17.956Z,22.59
2018-07-13T00:16:49.392Z,22.46
2018-07-13T00:19:20.683Z,22.38
2018-07-13T00:21:52.842Z,22.33
2018-07-13T00:24:23.641Z,22.25
2018-07-13T00:26:54.716Z,22.17
2018-07-13T00:29:25.643Z,22.17
2018-07-13T00:31:56.272Z,22.13
2018-07-13T00:34:26.788Z,22.09
2018-07-13T00:36:57.258Z,22.12
2018-07-13T00:39:28.065Z,22.17
2018-07-13T00:41:58.909Z,22.04
2018-07-13T00:44:30.105Z,21.93
2018-07-13T00:47:00.921Z,21.94
2018-07-13T00:49:31.704Z,21.86
2018-07-13T00:52:02.492Z,21.85
2018-07-13T00:54:33.369Z,21.82
2018-07-13T00:57:04.160Z,21.77
2018-07-13T00:59:34.931Z,21.68
2018-07-13T01:02:06.057Z,21.63
2018-07-13T01:04:36.741Z,21.63
2018-07-13T01:07:07.495Z,21.70
2018-07-13T01:09:38.137Z,21.72
2018-07-13T01:12:08.842Z,21.72
2018-07-13T01:14:39.582Z,21.75
2018-07-13T01:17:10.340Z,21.76
2018-07-13T01:19:41.308Z,21.71
2018-07-13T01:22:12.282Z,21.72
2018-07-13T01:24:42.984Z,21.63
2018-07-13T01:27:13.876Z,21.60
2018-07-13T01:29:44.438Z,21.61
2018-07-13T01:32:14.976Z,21.63
2018-07-13T01:34:46.220Z,21.62
2018-07-13T01:37:16.826Z,21.58
2018-07-13T01:39:47.471Z,21.59
2018-07-13T01:42:18.040Z,21.62
2018-07-13T01:44:48.745Z,21.63
2018-07-13T01:47:19.627Z,21.64
2018-07-13T01:49:50.428Z,21.59
2018-07-13T01:52:21.082Z,21.61
2018-07-13T01:54:51.969Z,21.52
2018-07-13T01:57:22.685Z,21.57
2018-07-13T01:59:53.508Z,21.51
2018-07-13T02:02:24.461Z,21.46
2018-07-13T02:04:55.487Z,21.44
2018-07-13T02:07:26.143Z,21.47
2018-07-13T02:09:57.368Z,21.49
2018-07-13T02:12:28.301Z,21.54
2018-07-13T02:14:58.912Z,21.46
2018-07-13T02:17:29.576Z,21.50
2018-07-13T02:20:00.299Z,21.56
2018-07-13T02:22:32.037Z,19.24
2018-07-13T02:25:03.995Z,21.36
2018-07-13T02:27:34.614Z,21.31
2018-07-13T02:30:05.446Z,21.15
2018-07-13T02:32:37.394Z,20.96
2018-07-13T02:35:08.145Z,20.75
2018-07-13T02:37:38.857Z,20.67
2018-07-13T02:40:09.629Z,20.73
2018-07-13T02:42:40.385Z,20.73
2018-07-13T02:45:11.288Z,20.71
2018-07-13T02:47:41.912Z,20.76
2018-07-13T02:50:12.545Z,20.77
2018-07-13T02:52:43.197Z,20.73
2018-07-13T02:55:14.434Z,20.81
2018-07-13T02:57:45.004Z,20.75
2018-07-13T03:00:16.373Z,20.70
2018-07-13T03:02:47.057Z,20.64
2018-07-13T03:05:17.777Z,20.79
2018-07-13T03:07:48.716Z,20.82
2018-07-13T03:10:19.351Z,20.94
2018-07-13T03:12:49.790Z,21.06
2018-07-13T03:15:20.420Z,21.16
2018-07-13T03:17:51.194Z,21.14
2018-07-13T03:20:21.723Z,21.17
2018-07-13T03:22:52.428Z,21.24
2018-07-13T03:25:23.171Z,21.33
2018-07-13T03:27:53.904Z,21.33
2018-07-13T03:30:24.564Z,21.53
2018-07-13T03:32:55.179Z,21.74
2018-07-13T03:35:25.968Z,22.00
2018-07-13T03:37:57.601Z,22.17
2018-07-13T03:40:28.212Z,22.31
2018-07-13T03:42:58.799Z,22.64
2018-07-13T03:45:29.703Z,22.93
2018-07-13T03:48:00.280Z,23.03
2018-07-13T03:50:32.157Z,23.23
2018-07-13T03:53:02.811Z,23.23
2018-07-13T03:55:33.660Z,23.24
2018-07-13T03:58:04.823Z,23.35
2018-07-13T04:00:36.487Z,23.76
2018-07-13T04:03:08.130Z,23.87
2018-07-13T04:05:38.996Z,24.18
2018-07-13T04:08:10.003Z,24.56
2018-07-13T04:10:41.126Z,24.93
2018-07-13T04:13:11.775Z,25.32
2018-07-13T04:15:42.497Z,25.82
2018-07-13T04:18:18.516Z,26.01
2018-07-13T04:20:50.819Z,26.27
2018-07-13T04:23:22.783Z,26.30
2018-07-13T04:25:54.258Z,26.20
2018-07-13T04:28:26.373Z,26.50
2018-07-13T04:30:57.289Z,26.90
2018-07-13T04:33:28.087Z,27.27
2018-07-13T04:35:58.885Z,27.44
2018-07-13T04:38:29.928Z,27.26
2018-07-13T04:41:00.859Z,27.21
2018-07-13T04:43:31.616Z,27.85
2018-07-13T04:46:02.590Z,28.28
2018-07-13T04:48:34.209Z,28.61
2018-07-13T04:51:04.558Z,28.45
2018-07-13T04:53:35.658Z,28.83
2018-07-13T04:56:06.872Z,29.08
2018-07-13T04:58:39.075Z,28.88
2018-07-13T05:01:10.253Z,29.06
2018-07-13T05:03:41.177Z,28.28
2018-07-13T05:06:12.062Z,27.91
2018-07-13T05:08:42.901Z,28.18
2018-07-13T05:11:13.756Z,28.68
2018-07-13T05:13:44.427Z,29.51
2018-07-13T05:16:15.337Z,29.87
2018-07-13T05:18:45.858Z,30.16
2018-07-13T05:21:16.571Z,30.45
2018-07-13T05:23:47.818Z,30.00
2018-07-13T05:26:18.760Z,30.70
2018-07-13T05:28:50.779Z,31.26
2018-07-13T05:31:23.312Z,31.76
2018-07-13T05:33:54.228Z,31.85
2018-07-13T05:36:25.475Z,32.24
2018-07-13T05:38:56.435Z,32.45
2018-07-13T05:41:27.404Z,32.67
2018-07-13T05:43:58.492Z,32.73
2018-07-13T05:46:29.228Z,32.31
2018-07-13T05:49:00.256Z,32.29
2018-07-13T05:51:31.265Z,33.22
2018-07-13T05:54:02.213Z,32.96
2018-07-13T05:56:32.949Z,33.22
2018-07-13T05:59:03.863Z,33.59
2018-07-13T06:01:34.555Z,33.98
2018-07-13T06:04:05.546Z,33.81
2018-07-13T06:06:36.433Z,33.78
2018-07-13T06:09:10.177Z,35.22
2018-07-13T06:11:43.252Z,35.41
2018-07-13T06:14:14.231Z,34.83
2018-07-13T06:16:45.133Z,34.88
2018-07-13T06:19:15.958Z,35.69
2018-07-13T06:21:46.615Z,34.89
2018-07-13T06:24:18.510Z,35.46
2018-07-13T06:26:49.308Z,34.55
2018-07-13T06:29:21.249Z,34.32
2018-07-13T06:31:52.407Z,34.97
2018-07-13T06:34:22.891Z,34.17
2018-07-13T06:36:54.296Z,34.35
2018-07-13T06:39:25.014Z,35.03
2018-07-13T06:41:56.983Z,35.09
2018-07-13T06:44:27.752Z,35.28
2018-07-13T06:46:59.285Z,35.46
2018-07-13T06:49:30.205Z,35.40
2018-07-13T06:52:00.981Z,35.40
2018-07-13T06:54:31.940Z,35.58
2018-07-13T06:57:03.629Z,35.70
2018-07-13T06:59:34.358Z,34.44
2018-07-13T07:02:05.118Z,34.20
2018-07-13T07:04:37.699Z,35.06
2018-07-13T07:07:12.804Z,34.91
2018-07-13T07:09:46.136Z,35.52
2018-07-13T07:13:55.955Z,35.52
2018-07-13T07:16:26.843Z,36.04
2018-07-13T07:18:57.894Z,35.82
2018-07-13T07:21:28.446Z,36.01
2018-07-13T07:23:59.274Z,35.97
2018-07-13T07:26:29.941Z,37.22
2018-07-13T07:29:00.496Z,36.80
2018-07-13T07:31:34.921Z,37.39
2018-07-13T07:34:05.377Z,36.84
2018-07-13T07:36:36.582Z,37.28
2018-07-13T07:39:11.585Z,37.04
2018-07-13T07:41:42.579Z,36.85
2018-07-13T07:44:13.309Z,36.60
2018-07-13T07:46:44.363Z,37.56
2018-07-13T07:49:15.064Z,37.63
2018-07-13T07:51:45.845Z,37.19
2018-07-13T07:54:16.495Z,36.82
2018-07-13T07:56:47.111Z,36.90
2018-07-13T07:59:17.819Z,37.83
2018-07-13T08:01:48.462Z,36.90
2018-07-13T08:04:19.794Z,37.19
2018-07-13T08:06:50.717Z,37.47
2018-07-13T08:09:21.265Z,37.54
2018-07-13T08:11:51.743Z,37.44
2018-07-13T08:14:22.315Z,38.21
2018-07-13T08:16:52.830Z,39.07
2018-07-13T08:19:24.129Z,38.33
2018-07-13T08:21:54.824Z,38.56
2018-07-13T08:24:25.741Z,38.67
2018-07-13T08:31:12.938Z,38.77
2018-07-13T08:33:44.130Z,39.92
2018-07-13T08:36:15.442Z,39.62
2018-07-13T08:38:46.429Z,38.53
2018-07-13T08:41:17.855Z,38.38
2018-07-13T08:43:48.812Z,38.35
2018-07-13T08:46:19.810Z,38.50
2018-07-13T08:48:50.279Z,38.53
2018-07-13T08:51:20.963Z,38.30
2018-07-13T08:53:51.949Z,38.27
2018-07-13T08:56:22.694Z,38.18
2018-07-13T08:58:53.275Z,38.54
2018-07-13T09:01:25.073Z,38.12
2018-07-13T09:03:56.506Z,38.61
2018-07-13T09:06:27.094Z,38.87
2018-07-13T09:08:57.543Z,39.70
2018-07-13T09:11:28.324Z,38.79
2018-07-13T09:13:59.086Z,38.98
2018-07-13T09:16:29.960Z,38.52
2018-07-13T09:19:00.616Z,38.01
2018-07-13T09:21:31.386Z,38.87
2018-07-13T09:24:03.049Z,38.58
2018-07-13T09:26:33.668Z,39.65
2018-07-13T09:29:04.397Z,38.39
2018-07-13T09:31:35.847Z,38.33
2018-07-13T09:34:07.608Z,38.11
2018-07-13T09:36:39.029Z,38.14
2018-07-13T09:39:10.421Z,38.51
2018-07-13T09:41:41.914Z,39.36
2018-07-13T09:44:12.768Z,39.63
2018-07-13T09:46:44.462Z,39.56
2018-07-13T09:49:15.083Z,39.42
2018-07-13T09:51:45.715Z,38.87
2018-07-13T09:54:16.447Z,38.92
2018-07-13T09:56:47.415Z,39.08
2018-07-13T09:59:17.865Z,40.81
2018-07-13T10:01:48.711Z,40.48
2018-07-13T10:04:19.469Z,38.55
2018-07-13T10:06:50.856Z,38.93
2018-07-13T10:09:21.714Z,39.74
2018-07-13T10:11:52.353Z,40.09
2018-07-13T10:14:23.130Z,40.90
2018-07-13T10:16:53.962Z,39.61
2018-07-13T10:19:24.657Z,38.81
2018-07-13T10:21:55.333Z,39.44
2018-07-13T10:24:27.198Z,39.75
2018-07-13T10:27:00.008Z,38.52
2018-07-13T10:29:46.480Z,39.21
2018-07-13T10:32:18.011Z,40.32
2018-07-13T10:34:49.994Z,39.19
2018-07-13T10:37:20.704Z,38.95
2018-07-13T10:39:51.344Z,40.13
2018-07-13T10:42:22.565Z,37.59
2018-07-13T10:44:53.947Z,36.26
2018-07-13T10:47:24.444Z,36.00
2018-07-13T10:49:55.896Z,36.22
2018-07-13T10:52:26.369Z,37.67
2018-07-13T10:54:56.745Z,39.41
2018-07-13T10:57:27.195Z,40.37
2018-07-13T10:59:57.562Z,41.24
2018-07-13T11:02:28.103Z,40.11
2018-07-13T11:04:58.654Z,41.18
2018-07-13T11:07:30.180Z,40.29
2018-07-13T11:10:01.192Z,40.19
2018-07-13T11:12:32.011Z,40.28
2018-07-13T11:15:02.573Z,39.63
2018-07-13T11:17:39.713Z,40.10
2018-07-13T11:20:10.402Z,40.68
2018-07-13T11:22:41.532Z,40.24
2018-07-13T11:25:12.627Z,39.27
2018-07-13T11:27:43.051Z,40.67
2018-07-13T11:30:13.473Z,39.93
2018-07-13T11:32:44.448Z,38.53
2018-07-13T11:35:15.184Z,38.66
2018-07-13T11:37:46.587Z,38.47
2018-07-13T11:40:16.958Z,37.12
2018-07-13T11:42:47.555Z,36.83
2018-07-13T11:45:18.256Z,36.25
2018-07-13T11:47:48.959Z,36.41
2018-07-13T11:50:19.709Z,36.31
2018-07-13T11:52:51.204Z,36.05
2018-07-13T11:55:21.818Z,36.04
2018-07-13T11:57:52.266Z,35.94
2018-07-13T12:00:22.866Z,35.70
2018-07-13T12:02:53.343Z,35.43
2018-07-13T12:05:24.077Z,35.53
2018-07-13T12:07:54.773Z,35.36
2018-07-13T12:10:25.400Z,35.42
2018-07-13T12:12:56.254Z,35.53
2018-07-13T12:15:26.786Z,35.29
2018-07-13T12:17:57.405Z,35.25
2018-07-13T12:20:28.034Z,34.98
2018-07-13T12:22:58.767Z,34.93
2018-07-13T12:25:29.352Z,35.03
2018-07-13T12:28:00.850Z,35.04
2018-07-13T12:30:31.425Z,35.43
2018-07-13T12:33:02.087Z,35.35
2018-07-13T12:35:32.467Z,35.26
2018-07-13T12:38:03.082Z,35.50
2018-07-13T12:40:34.031Z,35.59
2018-07-13T12:43:04.687Z,35.57
2018-07-13T12:45:35.329Z,35.34
2018-07-13T12:48:05.959Z,35.41
2018-07-13T12:50:36.598Z,35.69
2018-07-13T12:53:09.966Z,36.01
2018-07-13T12:55:40.672Z,35.85
2018-07-13T12:58:11.292Z,35.87
2018-07-13T13:00:42.388Z,36.01
2018-07-13T13:03:13.140Z,36.01
2018-07-13T13:05:44.075Z,35.63
2018-07-13T13:08:14.624Z,35.82
2018-07-13T13:10:45.556Z,35.86
2018-07-13T13:13:15.944Z,36.18
2018-07-13T13:15:46.461Z,36.22
2018-07-13T13:18:17.296Z,36.26
2018-07-13T13:20:47.873Z,36.23
2018-07-13T13:23:18.392Z,36.18
2018-07-13T13:25:49.404Z,36.23
2018-07-13T13:28:19.924Z,36.02
2018-07-13T13:30:50.495Z,36.09
2018-07-13T13:33:21.120Z,35.67
2018-07-13T13:35:51.978Z,35.94
2018-07-13T13:38:22.930Z,35.70
2018-07-13T13:40:53.515Z,35.79
2018-07-13T13:43:24.127Z,35.91
2018-07-13T13:45:54.797Z,35.56
2018-07-13T13:48:25.455Z,35.16
2018-07-13T13:50:56.331Z,34.97
2018-07-13T13:53:27.659Z,34.56
2018-07-13T13:55:58.430Z,34.52
2018-07-13T13:58:29.007Z,34.58
2018-07-13T14:00:59.562Z,34.35
2018-07-13T14:03:30.101Z,34.09
2018-07-13T14:06:00.722Z,33.69
2018-07-13T14:08:31.440Z,33.33
2018-07-13T14:11:08.246Z,33.33
2018-07-13T14:13:39.935Z,33.16
2018-07-13T14:16:14.579Z,32.92
2018-07-13T14:18:45.775Z,33.28
2018-07-13T14:21:17.473Z,33.68
2018-07-13T14:23:49.268Z,33.71
2018-07-13T14:26:20.846Z,33.49
2018-07-13T14:28:57.508Z,33.49
2018-07-13T14:31:28.336Z,33.29
2018-07-13T14:33:59.072Z,33.09
2018-07-13T14:36:29.983Z,33.11
2018-07-13T14:39:00.675Z,32.84
2018-07-13T14:41:31.843Z,32.60
2018-07-13T14:44:02.422Z,32.63
2018-07-13T14:46:33.793Z,32.58
2018-07-13T14:49:04.148Z,32.19
2018-07-13T14:51:35.692Z,32.26
2018-07-13T14:54:06.533Z,32.22
2018-07-13T14:56:36.948Z,32.32
2018-07-13T14:59:07.860Z,32.10
2018-07-13T15:01:38.480Z,32.07
2018-07-13T15:04:09.047Z,31.77
2018-07-13T15:06:39.628Z,31.79
2018-07-13T15:09:10.020Z,31.87
2018-07-13T15:11:40.536Z,31.71
2018-07-13T15:14:10.943Z,31.73
2018-07-13T15:16:41.428Z,31.73
2018-07-13T15:19:11.909Z,31.48
2018-07-13T15:21:42.301Z,31.32
2018-07-13T15:24:12.873Z,31.51
2018-07-13T15:26:43.267Z,31.47
2018-07-13T15:29:13.742Z,31.38
2018-07-13T15:31:44.601Z,31.14
2018-07-13T15:34:15.113Z,30.53
2018-07-13T15:36:45.649Z,30.13
2018-07-13T15:39:16.105Z,30.00
2018-07-13T15:41:46.583Z,30.09
2018-07-13T15:44:17.591Z,30.07
2018-07-13T15:46:48.237Z,29.93
2018-07-13T15:49:19.054Z,29.92
2018-07-13T15:51:49.899Z,29.77
2018-07-13T15:54:20.594Z,29.74
2018-07-13T15:56:51.247Z,29.65
2018-07-13T15:59:21.932Z,29.67
2018-07-13T16:01:52.371Z,29.62
2018-07-13T16:04:22.955Z,29.62
2018-07-13T16:06:53.627Z,29.58
2018-07-13T16:09:24.152Z,29.42
2018-07-13T16:11:54.720Z,29.26
2018-07-13T16:14:26.074Z,29.22
2018-07-13T16:16:56.675Z,29.11
2018-07-13T16:19:27.127Z,28.93
2018-07-13T16:21:58.680Z,28.78
2018-07-13T16:24:29.156Z,28.64
2018-07-13T16:26:59.602Z,28.55
2018-07-13T16:32:30.923Z,28.29
2018-07-13T16:35:01.255Z,28.32
2018-07-13T16:37:31.643Z,28.15
2018-07-13T16:40:02.223Z,28.08
2018-07-13T16:42:32.853Z,27.99
2018-07-13T16:45:03.333Z,27.94
2018-07-13T16:47:34.303Z,28.05
2018-07-13T16:50:05.115Z,28.03
2018-07-13T16:52:35.489Z,28.14
2018-07-13T16:55:06.508Z,28.17
2018-07-13T16:57:37.021Z,28.14
2018-07-13T17:00:09.722Z,28.08
2018-07-13T17:02:40.416Z,28.05
2018-07-13T17:05:10.961Z,28.02
2018-07-13T17:07:41.449Z,28.01
2018-07-13T17:10:12.042Z,28.04
2018-07-13T17:12:42.651Z,28.11
2018-07-13T17:15:13.244Z,28.10
2018-07-13T17:17:43.698Z,27.99
2018-07-13T17:20:14.193Z,28.04
2018-07-13T17:22:44.634Z,28.00
2018-07-13T17:25:15.240Z,28.03
2018-07-13T17:27:46.812Z,28.19
2018-07-13T17:30:17.189Z,28.18
2018-07-13T17:32:47.633Z,28.11
2018-07-13T17:35:18.549Z,28.07
2018-07-13T17:37:49.343Z,28.12
2018-07-13T17:40:20.273Z,28.17
2018-07-13T17:42:50.745Z,28.07
2018-07-13T17:45:21.228Z,28.01
2018-07-13T17:47:51.740Z,27.97
2018-07-13T17:50:22.073Z,27.90
2018-07-13T17:52:52.480Z,27.85
2018-07-13T17:55:22.999Z,27.81
2018-07-13T17:57:53.553Z,27.78
2018-07-13T18:00:24.404Z,27.71
2018-07-13T18:02:55.444Z,27.54
2018-07-13T18:05:25.824Z,27.49
2018-07-13T18:08:04.998Z,27.45
2018-07-13T18:10:36.974Z,27.47
2018-07-13T18:13:07.953Z,27.41
2018-07-13T18:15:38.964Z,27.33
2018-07-13T18:18:09.351Z,27.21
2018-07-13T18:20:40.052Z,27.23
2018-07-13T18:23:10.630Z,27.17
2018-07-13T18:25:41.127Z,27.16
2018-07-13T18:28:11.688Z,27.09
2018-07-13T18:30:42.080Z,27.11
2018-07-13T18:33:12.350Z,26.99
2018-07-13T18:35:42.795Z,26.36
2018-07-13T18:38:13.893Z,26.91
2018-07-13T18:40:44.243Z,26.88
2018-07-13T18:43:14.944Z,26.85
2018-07-13T18:45:45.907Z,26.83
2018-07-13T18:48:16.430Z,26.72
2018-07-13T18:50:46.962Z,26.75
2018-07-13T18:53:17.861Z,26.71
2018-07-13T18:55:48.341Z,26.68
2018-07-13T18:58:19.285Z,26.58
2018-07-13T19:00:49.675Z,26.59
2018-07-13T19:03:22.430Z,26.49
2018-07-13T19:05:53.590Z,26.40
2018-07-13T19:08:24.288Z,26.44
2018-07-13T19:10:54.897Z,26.38
2018-07-13T19:13:25.602Z,26.24
2018-07-13T19:15:56.705Z,26.31
2018-07-13T19:18:27.958Z,26.16
2018-07-13T19:20:58.944Z,26.07
2018-07-13T19:23:29.491Z,26.05
2018-07-13T19:25:59.930Z,26.08
2018-07-13T19:28:30.482Z,26.02
2018-07-13T19:31:00.901Z,25.90
2018-07-13T19:33:31.356Z,25.85
2018-07-13T19:36:02.287Z,25.80
2018-07-13T19:38:33.018Z,25.79
2018-07-13T19:41:03.826Z,25.89
2018-07-13T19:43:34.719Z,25.77
2018-07-13T19:46:05.455Z,25.68
2018-07-13T19:48:36.111Z,25.68
2018-07-13T19:51:06.887Z,25.66
2018-07-13T19:53:37.561Z,25.70
2018-07-13T19:56:08.318Z,25.23
2018-07-13T19:58:39.229Z,25.77
2018-07-13T20:01:10.813Z,25.81
2018-07-13T20:03:41.346Z,25.76
2018-07-13T20:06:11.847Z,25.74
2018-07-13T20:08:42.442Z,25.76
2018-07-13T20:11:12.969Z,25.81
2018-07-13T20:13:43.344Z,25.83
2018-07-13T20:16:13.828Z,25.88
2018-07-13T20:18:44.304Z,25.84
2018-07-13T20:21:14.783Z,25.92
2018-07-13T20:23:45.234Z,25.95
2018-07-13T20:26:16.083Z,25.99
2018-07-13T20:28:46.824Z,25.91
2018-07-13T20:31:17.334Z,25.90
2018-07-13T20:33:47.812Z,25.90
2018-07-13T20:36:18.374Z,25.80
2018-07-13T20:38:48.957Z,25.84
2018-07-13T20:41:19.709Z,25.85
2018-07-13T20:43:50.154Z,25.80
2018-07-13T20:46:20.620Z,25.79
2018-07-13T20:48:51.411Z,25.71
2018-07-13T20:51:21.871Z,25.75
2018-07-13T20:53:52.462Z,25.67
2018-07-13T20:56:23.269Z,25.72
2018-07-13T20:58:54.041Z,25.67
2018-07-13T21:01:24.658Z,25.52
2018-07-13T21:03:55.991Z,25.41
2018-07-13T21:06:26.501Z,25.33
2018-07-13T21:08:57.110Z,25.18
2018-07-13T21:11:27.592Z,25.02
2018-07-13T21:13:58.075Z,24.98
2018-07-13T21:16:29.341Z,24.95
2018-07-13T21:18:59.939Z,24.90
2018-07-13T21:21:30.511Z,24.84
2018-07-13T21:24:01.005Z,24.81
2018-07-13T21:26:31.478Z,24.82
2018-07-13T21:29:02.153Z,24.71
2018-07-13T21:31:32.579Z,24.59
2018-07-13T21:34:02.948Z,24.41
2018-07-13T21:36:33.513Z,24.37
2018-07-13T21:39:05.227Z,24.34
2018-07-13T21:41:35.893Z,24.30
2018-07-13T21:44:06.493Z,24.16
2018-07-13T21:46:37.003Z,24.09
2018-07-13T21:49:07.603Z,24.02
2018-07-13T21:51:38.280Z,24.02
2018-07-13T21:54:08.842Z,23.96
2018-07-13T21:56:39.393Z,23.99
2018-07-13T21:59:10.014Z,24.05
2018-07-13T22:01:41.048Z,24.15
2018-07-13T22:04:11.472Z,24.15
2018-07-13T22:06:42.362Z,24.09
2018-07-13T22:09:12.963Z,24.08
2018-07-13T22:11:43.527Z,24.15
2018-07-13T22:14:13.889Z,24.21
2018-07-13T22:16:44.680Z,24.25
2018-07-13T22:19:15.188Z,24.25
2018-07-13T22:21:45.639Z,24.29
2018-07-13T22:24:16.334Z,24.29
2018-07-13T22:26:46.851Z,24.23
2018-07-13T22:29:18.010Z,24.22
2018-07-13T22:31:48.640Z,24.19
2018-07-13T22:34:19.993Z,24.17
2018-07-13T22:36:50.890Z,24.20
2018-07-13T22:39:21.513Z,24.30
2018-07-13T22:41:52.031Z,24.38
2018-07-13T22:44:22.398Z,24.38
2018-07-13T22:46:53.128Z,24.39
2018-07-13T22:49:23.773Z,24.48
2018-07-13T22:51:54.154Z,24.38
2018-07-13T22:54:25.298Z,24.47
2018-07-13T22:56:56.245Z,24.52
2018-07-13T22:59:26.854Z,24.53
2018-07-13T23:01:57.435Z,24.46
2018-07-13T23:04:28.055Z,24.44
2018-07-13T23:06:58.427Z,24.41
2018-07-13T23:09:28.996Z,24.43
2018-07-13T23:11:59.583Z,24.43
2018-07-13T23:14:29.984Z,24.42
2018-07-13T23:17:00.481Z,24.48
2018-07-13T23:19:30.781Z,24.41
2018-07-13T23:22:01.357Z,24.40
2018-07-13T23:24:31.849Z,24.33
2018-07-13T23:27:02.447Z,24.33
2018-07-13T23:29:33.043Z,24.35
2018-07-13T23:32:03.519Z,24.30
2018-07-13T23:34:33.929Z,24.31
2018-07-13T23:37:04.511Z,24.26
2018-07-13T23:39:35.091Z,24.14
2018-07-13T23:42:05.553Z,24.04
2018-07-13T23:44:36.182Z,24.00
2018-07-13T23:47:06.772Z,23.97
2018-07-13T23:49:37.771Z,23.84
2018-07-13T23:52:08.378Z,23.79
2018-07-13T23:54:39.464Z,23.74
2018-07-13T23:57:09.912Z,23.74
2018-07-13T23:59:40.420Z,23.72
